RYR58JL EGSS-LFMP
Flight info
| Callsign | RYR58JL |
|---|---|
| Flight time | N/A |
| Altitude | 33000 |
| Route | NUGBO M183 SILVA Q41 COWLY DCT GWC UN859 SOPIL DCT BALAN DCT EVPOK DCT NARAK DCT GAI G36 ORBIL |
| Aircraft | B738/M-SDE2E3FGHIRWXY/LB1 |
Departure
| Time | N/A |
|---|---|
| Airport | London Stansted Airport (EGSS) |
Arrival
| Time | 2026-04-15 15:56 |
|---|---|
| Airport | Perpignan-Rivesaltes (Llabanère) Airport (LFMP) |
| Time | Latitude | Longitude | Altitude | Speed | Heading |
|---|---|---|---|---|---|
| 2026-04-15 14:33 | 50.33189 | -0.06513 | 37074 ft | 386 kts | 175° |
| 2026-04-15 14:33 | 50.30543 | -0.05766 | 37080 ft | 385 kts | 175° |
| 2026-04-15 14:34 | 50.25459 | -0.04332 | 37096 ft | 383 kts | 175° |
| 2026-04-15 14:34 | 50.20569 | -0.02960 | 37092 ft | 382 kts | 175° |
| 2026-04-15 14:35 | 50.15748 | -0.01610 | 37094 ft | 382 kts | 175° |
| 2026-04-15 14:35 | 50.10515 | -0.00143 | 37114 ft | 383 kts | 175° |
| 2026-04-15 14:36 | 50.05280 | 0.01775 | 37093 ft | 389 kts | 171° |
| 2026-04-15 14:36 | 49.99973 | 0.03902 | 37114 ft | 398 kts | 171° |
| 2026-04-15 14:37 | 49.94592 | 0.06040 | 37114 ft | 403 kts | 171° |
| 2026-04-15 14:37 | 49.89273 | 0.08133 | 37125 ft | 405 kts | 171° |
| 2026-04-15 14:38 | 49.83788 | 0.10276 | 37119 ft | 406 kts | 171° |
| 2026-04-15 14:38 | 49.78301 | 0.12415 | 37120 ft | 405 kts | 171° |
| 2026-04-15 14:39 | 49.72858 | 0.14530 | 37117 ft | 404 kts | 171° |
| 2026-04-15 14:39 | 49.67437 | 0.16638 | 37123 ft | 402 kts | 171° |
| 2026-04-15 14:40 | 49.62065 | 0.18806 | 37126 ft | 400 kts | 171° |
| 2026-04-15 14:40 | 49.56677 | 0.21003 | 37120 ft | 399 kts | 171° |
| 2026-04-15 14:41 | 49.51310 | 0.23178 | 37129 ft | 398 kts | 171° |
| 2026-04-15 14:41 | 49.46207 | 0.25234 | 37121 ft | 397 kts | 171° |
| 2026-04-15 14:42 | 49.40849 | 0.27387 | 37113 ft | 398 kts | 171° |
| 2026-04-15 14:42 | 49.35482 | 0.29545 | 37109 ft | 399 kts | 171° |
| 2026-04-15 14:43 | 49.30436 | 0.31566 | 37108 ft | 401 kts | 171° |
| 2026-04-15 14:43 | 49.25028 | 0.33823 | 37105 ft | 404 kts | 170° |
| 2026-04-15 14:44 | 49.19628 | 0.36108 | 37115 ft | 406 kts | 170° |
| 2026-04-15 14:44 | 49.14169 | 0.38408 | 37117 ft | 408 kts | 171° |
| 2026-04-15 14:45 | 49.08679 | 0.40708 | 37122 ft | 410 kts | 171° |
| 2026-04-15 14:45 | 49.03167 | 0.43011 | 37120 ft | 411 kts | 171° |
| 2026-04-15 14:46 | 48.97634 | 0.45316 | 37131 ft | 412 kts | 171° |
| 2026-04-15 14:46 | 48.92136 | 0.47602 | 37130 ft | 412 kts | 171° |
| 2026-04-15 14:47 | 48.86601 | 0.49896 | 37139 ft | 411 kts | 171° |
| 2026-04-15 14:47 | 48.81099 | 0.52173 | 37135 ft | 411 kts | 171° |
| 2026-04-15 14:48 | 48.75574 | 0.54411 | 37141 ft | 409 kts | 172° |
| 2026-04-15 14:48 | 48.70056 | 0.56555 | 37145 ft | 409 kts | 172° |
| 2026-04-15 14:49 | 48.64568 | 0.58685 | 37148 ft | 409 kts | 172° |
| 2026-04-15 14:49 | 48.59034 | 0.60839 | 37146 ft | 410 kts | 172° |
| 2026-04-15 14:50 | 48.53503 | 0.62993 | 37146 ft | 411 kts | 172° |
| 2026-04-15 14:50 | 48.47955 | 0.65199 | 37149 ft | 411 kts | 171° |
| 2026-04-15 14:51 | 48.42461 | 0.67447 | 37154 ft | 411 kts | 171° |
| 2026-04-15 14:51 | 48.37253 | 0.69568 | 37158 ft | 411 kts | 171° |
| 2026-04-15 14:52 | 48.31717 | 0.71809 | 37160 ft | 412 kts | 171° |
| 2026-04-15 14:52 | 48.26173 | 0.74046 | 37156 ft | 412 kts | 171° |
| 2026-04-15 14:53 | 48.20659 | 0.76240 | 37159 ft | 412 kts | 172° |
| 2026-04-15 14:53 | 48.15164 | 0.78399 | 37156 ft | 413 kts | 172° |
| 2026-04-15 14:54 | 48.09597 | 0.80581 | 37161 ft | 413 kts | 172° |
| 2026-04-15 14:54 | 48.04063 | 0.82751 | 37163 ft | 413 kts | 172° |
| 2026-04-15 14:55 | 47.99059 | 0.84710 | 37172 ft | 413 kts | 172° |
| 2026-04-15 14:55 | 47.93486 | 0.86887 | 37170 ft | 414 kts | 172° |
| 2026-04-15 14:56 | 47.88447 | 0.88851 | 37188 ft | 416 kts | 172° |
| 2026-04-15 14:56 | 47.82868 | 0.91020 | 37176 ft | 418 kts | 172° |
| 2026-04-15 14:57 | 47.77220 | 0.93204 | 37182 ft | 420 kts | 172° |
| 2026-04-15 14:57 | 47.72457 | 0.95046 | 37190 ft | 422 kts | 171° |
| 2026-04-15 14:58 | 47.66572 | 0.97316 | 37188 ft | 424 kts | 171° |
| 2026-04-15 14:58 | 47.61255 | 0.99363 | 37186 ft | 425 kts | 171° |
| 2026-04-15 14:59 | 47.55513 | 1.01573 | 37189 ft | 426 kts | 172° |
| 2026-04-15 14:59 | 47.49762 | 1.03775 | 37187 ft | 427 kts | 172° |
| 2026-04-15 15:00 | 47.44036 | 1.05928 | 37192 ft | 425 kts | 175° |
| 2026-04-15 15:00 | 47.38245 | 1.06422 | 37204 ft | 414 kts | 187° |
| 2026-04-15 15:01 | 47.33180 | 1.06234 | 37191 ft | 414 kts | 187° |
| 2026-04-15 15:01 | 47.27403 | 1.06058 | 37192 ft | 414 kts | 186° |
| 2026-04-15 15:02 | 47.21633 | 1.05919 | 37185 ft | 415 kts | 186° |
| 2026-04-15 15:02 | 47.15882 | 1.05793 | 37198 ft | 415 kts | 186° |
| 2026-04-15 15:03 | 47.10824 | 1.05683 | 37205 ft | 415 kts | 186° |
| 2026-04-15 15:03 | 47.05050 | 1.05554 | 37200 ft | 415 kts | 186° |
| 2026-04-15 15:04 | 46.99263 | 1.05390 | 37200 ft | 415 kts | 187° |
| 2026-04-15 15:04 | 46.93518 | 1.05128 | 37204 ft | 415 kts | 187° |
| 2026-04-15 15:05 | 46.87752 | 1.04861 | 37204 ft | 415 kts | 187° |
| 2026-04-15 15:05 | 46.81971 | 1.04606 | 37204 ft | 415 kts | 187° |
| 2026-04-15 15:06 | 46.73319 | 1.04232 | 37216 ft | 417 kts | 187° |
| 2026-04-15 15:06 | 46.67510 | 1.03981 | 37210 ft | 418 kts | 187° |
| 2026-04-15 15:07 | 46.61686 | 1.03731 | 37213 ft | 418 kts | 187° |
| 2026-04-15 15:07 | 46.55894 | 1.03482 | 37212 ft | 418 kts | 187° |
| 2026-04-15 15:08 | 46.50053 | 1.03712 | 37210 ft | 427 kts | 175° |
| 2026-04-15 15:08 | 46.44209 | 1.05656 | 37222 ft | 431 kts | 172° |
| 2026-04-15 15:09 | 46.38359 | 1.07688 | 37225 ft | 432 kts | 172° |
| 2026-04-15 15:09 | 46.32531 | 1.09667 | 37223 ft | 433 kts | 173° |
| 2026-04-15 15:10 | 46.27613 | 1.11316 | 37229 ft | 433 kts | 173° |
| 2026-04-15 15:10 | 46.21270 | 1.13421 | 37230 ft | 433 kts | 173° |
| 2026-04-15 15:11 | 46.15401 | 1.15364 | 37234 ft | 432 kts | 173° |
| 2026-04-15 15:11 | 46.10534 | 1.16974 | 37228 ft | 431 kts | 173° |
| 2026-04-15 15:12 | 46.03854 | 1.19179 | 37234 ft | 431 kts | 173° |
| 2026-04-15 15:12 | 45.98963 | 1.20791 | 37232 ft | 430 kts | 173° |
| 2026-04-15 15:13 | 45.93137 | 1.22706 | 37237 ft | 430 kts | 173° |
| 2026-04-15 15:13 | 45.87354 | 1.24601 | 37247 ft | 430 kts | 173° |
| 2026-04-15 15:14 | 45.81503 | 1.26515 | 37238 ft | 432 kts | 173° |
| 2026-04-15 15:14 | 45.75627 | 1.28435 | 37246 ft | 433 kts | 173° |
| 2026-04-15 15:15 | 45.68926 | 1.30618 | 37238 ft | 435 kts | 173° |
| 2026-04-15 15:15 | 45.63004 | 1.32543 | 37234 ft | 436 kts | 173° |
| 2026-04-15 15:16 | 45.57344 | 1.34381 | 37232 ft | 437 kts | 173° |
| 2026-04-15 15:16 | 45.51389 | 1.36309 | 37230 ft | 438 kts | 173° |
| 2026-04-15 15:17 | 45.45432 | 1.38233 | 37222 ft | 439 kts | 173° |
| 2026-04-15 15:17 | 45.39471 | 1.40153 | 37223 ft | 438 kts | 173° |
| 2026-04-15 15:18 | 45.33548 | 1.42060 | 37217 ft | 438 kts | 173° |
| 2026-04-15 15:18 | 45.27601 | 1.43971 | 37218 ft | 438 kts | 173° |
| 2026-04-15 15:19 | 45.21653 | 1.45876 | 37210 ft | 437 kts | 173° |
| 2026-04-15 15:19 | 45.15716 | 1.47776 | 37211 ft | 437 kts | 173° |
| 2026-04-15 15:20 | 45.09775 | 1.49669 | 37205 ft | 437 kts | 173° |
| 2026-04-15 15:20 | 45.03867 | 1.51547 | 37206 ft | 438 kts | 173° |
| 2026-04-15 15:21 | 44.97890 | 1.53448 | 37209 ft | 442 kts | 173° |
| 2026-04-15 15:21 | 44.91885 | 1.55353 | 37207 ft | 442 kts | 173° |
| 2026-04-15 15:22 | 44.85864 | 1.57258 | 37209 ft | 443 kts | 173° |
| 2026-04-15 15:22 | 44.80632 | 1.58907 | 37017 ft | 449 kts | 173° |
| 2026-04-15 15:23 | 44.77557 | 1.59873 | 36662 ft | 456 kts | 173° |
| 2026-04-15 15:23 | 44.74453 | 1.60850 | 36228 ft | 457 kts | 172° |
| 2026-04-15 15:23 | 44.71351 | 1.61829 | 35776 ft | 456 kts | 172° |
| 2026-04-15 15:23 | 44.68291 | 1.62793 | 35335 ft | 456 kts | 172° |
| 2026-04-15 15:24 | 44.65189 | 1.63769 | 34885 ft | 456 kts | 172° |
| 2026-04-15 15:24 | 44.62086 | 1.64742 | 34429 ft | 457 kts | 172° |
| 2026-04-15 15:24 | 44.58979 | 1.65716 | 33993 ft | 458 kts | 172° |
| 2026-04-15 15:24 | 44.55856 | 1.66694 | 33548 ft | 459 kts | 172° |
| 2026-04-15 15:25 | 44.52727 | 1.67670 | 33103 ft | 461 kts | 172° |
| 2026-04-15 15:25 | 44.49590 | 1.68649 | 32659 ft | 463 kts | 172° |
| 2026-04-15 15:25 | 44.46431 | 1.69634 | 32215 ft | 465 kts | 171° |
| 2026-04-15 15:25 | 44.43306 | 1.70608 | 31775 ft | 466 kts | 171° |
| 2026-04-15 15:26 | 44.40150 | 1.71592 | 31316 ft | 461 kts | 171° |
| 2026-04-15 15:26 | 44.37038 | 1.72563 | 30861 ft | 454 kts | 171° |
| 2026-04-15 15:26 | 44.33974 | 1.73515 | 30405 ft | 448 kts | 171° |
| 2026-04-15 15:26 | 44.30939 | 1.74456 | 29957 ft | 445 kts | 171° |
| 2026-04-15 15:27 | 44.27916 | 1.75329 | 29507 ft | 441 kts | 173° |
| 2026-04-15 15:27 | 44.24904 | 1.76035 | 29057 ft | 438 kts | 175° |
| 2026-04-15 15:27 | 44.21893 | 1.76671 | 28606 ft | 435 kts | 175° |
| 2026-04-15 15:27 | 44.18908 | 1.77289 | 28154 ft | 433 kts | 175° |
| 2026-04-15 15:28 | 44.16938 | 1.77701 | 27867 ft | 432 kts | 175° |
| 2026-04-15 15:28 | 44.13967 | 1.78334 | 27413 ft | 430 kts | 174° |
| 2026-04-15 15:28 | 44.11015 | 1.78975 | 26969 ft | 429 kts | 174° |
| 2026-04-15 15:28 | 44.07123 | 1.79830 | 26406 ft | 426 kts | 174° |
| 2026-04-15 15:29 | 44.04197 | 1.80475 | 25983 ft | 425 kts | 174° |
| 2026-04-15 15:29 | 44.02220 | 1.80909 | 25689 ft | 424 kts | 174° |
| 2026-04-15 15:29 | 43.99312 | 1.81546 | 25269 ft | 422 kts | 174° |
| 2026-04-15 15:29 | 43.96470 | 1.82364 | 24834 ft | 423 kts | 166° |
| 2026-04-15 15:30 | 43.93723 | 1.83822 | 24421 ft | 423 kts | 156° |
| 2026-04-15 15:30 | 43.91173 | 1.85871 | 24000 ft | 422 kts | 149° |
| 2026-04-15 15:30 | 43.88706 | 1.88051 | 23575 ft | 419 kts | 149° |
| 2026-04-15 15:30 | 43.86256 | 1.90230 | 23148 ft | 416 kts | 149° |
| 2026-04-15 15:31 | 43.83817 | 1.92379 | 22734 ft | 413 kts | 149° |
| 2026-04-15 15:31 | 43.81397 | 1.94485 | 22342 ft | 409 kts | 149° |
| 2026-04-15 15:31 | 43.79002 | 1.96555 | 21931 ft | 403 kts | 149° |
| 2026-04-15 15:31 | 43.76637 | 1.98589 | 21550 ft | 397 kts | 149° |
| 2026-04-15 15:32 | 43.74300 | 2.00595 | 21124 ft | 393 kts | 149° |
| 2026-04-15 15:32 | 43.71983 | 2.02583 | 20764 ft | 388 kts | 149° |
| 2026-04-15 15:32 | 43.69707 | 2.04572 | 20409 ft | 384 kts | 148° |
| 2026-04-15 15:32 | 43.67518 | 2.06541 | 20079 ft | 378 kts | 148° |
| 2026-04-15 15:33 | 43.65326 | 2.08532 | 19707 ft | 374 kts | 148° |
| 2026-04-15 15:33 | 43.63159 | 2.10496 | 19359 ft | 370 kts | 148° |
| 2026-04-15 15:33 | 43.61008 | 2.12443 | 19006 ft | 367 kts | 148° |
| 2026-04-15 15:33 | 43.58882 | 2.14360 | 18656 ft | 363 kts | 148° |
| 2026-04-15 15:34 | 43.56775 | 2.16255 | 18304 ft | 360 kts | 148° |
| 2026-04-15 15:34 | 43.54710 | 2.18109 | 17958 ft | 357 kts | 147° |
| 2026-04-15 15:34 | 43.52635 | 2.19972 | 17609 ft | 354 kts | 147° |
| 2026-04-15 15:34 | 43.50571 | 2.21823 | 17257 ft | 352 kts | 147° |
| 2026-04-15 15:35 | 43.48522 | 2.23657 | 16911 ft | 349 kts | 147° |
| 2026-04-15 15:35 | 43.46485 | 2.25478 | 16561 ft | 347 kts | 147° |
| 2026-04-15 15:35 | 43.44454 | 2.27267 | 16207 ft | 345 kts | 148° |
| 2026-04-15 15:35 | 43.42429 | 2.29035 | 15857 ft | 343 kts | 148° |
| 2026-04-15 15:36 | 43.40443 | 2.30768 | 15512 ft | 341 kts | 148° |
| 2026-04-15 15:36 | 43.38444 | 2.32514 | 15160 ft | 339 kts | 148° |
| 2026-04-15 15:36 | 43.36458 | 2.34249 | 14808 ft | 337 kts | 147° |
| 2026-04-15 15:36 | 43.34483 | 2.35972 | 14455 ft | 335 kts | 148° |
| 2026-04-15 15:37 | 43.32520 | 2.37672 | 14107 ft | 333 kts | 148° |
| 2026-04-15 15:37 | 43.30564 | 2.39357 | 13755 ft | 331 kts | 148° |
| 2026-04-15 15:37 | 43.28617 | 2.41031 | 13407 ft | 329 kts | 148° |
| 2026-04-15 15:37 | 43.26685 | 2.42692 | 13075 ft | 326 kts | 148° |
| 2026-04-15 15:38 | 43.24786 | 2.44326 | 12714 ft | 325 kts | 148° |
| 2026-04-15 15:38 | 43.22869 | 2.45973 | 12360 ft | 324 kts | 147° |
| 2026-04-15 15:38 | 43.20970 | 2.47603 | 12179 ft | 316 kts | 147° |
| 2026-04-15 15:38 | 43.19162 | 2.49210 | 12152 ft | 304 kts | 141° |
| 2026-04-15 15:39 | 43.17759 | 2.51307 | 12103 ft | 297 kts | 126° |
| 2026-04-15 15:39 | 43.16490 | 2.53601 | 11718 ft | 305 kts | 125° |
| 2026-04-15 15:39 | 43.15215 | 2.55939 | 11373 ft | 307 kts | 125° |
| 2026-04-15 15:39 | 43.13944 | 2.58259 | 11140 ft | 302 kts | 126° |
| 2026-04-15 15:40 | 43.12686 | 2.60544 | 10869 ft | 299 kts | 126° |
| 2026-04-15 15:40 | 43.11435 | 2.62802 | 10610 ft | 296 kts | 126° |
| 2026-04-15 15:40 | 43.10195 | 2.65027 | 10378 ft | 292 kts | 126° |
| 2026-04-15 15:40 | 43.08985 | 2.67195 | 10137 ft | 288 kts | 126° |
| 2026-04-15 15:41 | 43.07779 | 2.69357 | 9900 ft | 285 kts | 126° |
| 2026-04-15 15:41 | 43.06574 | 2.71506 | 9651 ft | 283 kts | 126° |
| 2026-04-15 15:41 | 43.05381 | 2.73632 | 9415 ft | 280 kts | 126° |
| 2026-04-15 15:41 | 43.04199 | 2.75737 | 9180 ft | 278 kts | 127° |
| 2026-04-15 15:42 | 43.03030 | 2.77818 | 8927 ft | 274 kts | 126° |
| 2026-04-15 15:42 | 43.01871 | 2.79876 | 8700 ft | 272 kts | 126° |
| 2026-04-15 15:42 | 43.00723 | 2.81917 | 8473 ft | 269 kts | 127° |
| 2026-04-15 15:42 | 42.99583 | 2.83941 | 8247 ft | 267 kts | 127° |
| 2026-04-15 15:43 | 42.98455 | 2.85943 | 8021 ft | 264 kts | 127° |
| 2026-04-15 15:43 | 42.97339 | 2.87922 | 7788 ft | 262 kts | 127° |
| 2026-04-15 15:43 | 42.96233 | 2.89884 | 7567 ft | 260 kts | 127° |
| 2026-04-15 15:43 | 42.95137 | 2.91825 | 7347 ft | 257 kts | 126° |
| 2026-04-15 15:44 | 42.94064 | 2.93724 | 7123 ft | 253 kts | 127° |
| 2026-04-15 15:44 | 42.92988 | 2.95626 | 6878 ft | 252 kts | 127° |
| 2026-04-15 15:44 | 42.92473 | 2.96536 | 6777 ft | 251 kts | 127° |
| 2026-04-15 15:44 | 42.91500 | 2.98179 | 6571 ft | 250 kts | 127° |
| 2026-04-15 15:45 | 42.90447 | 3.00054 | 6347 ft | 247 kts | 126° |
| 2026-04-15 15:45 | 42.89406 | 3.01912 | 6168 ft | 244 kts | 126° |
| 2026-04-15 15:45 | 42.88344 | 3.03653 | 6112 ft | 233 kts | 140° |
| 2026-04-15 15:45 | 42.86907 | 3.04555 | 6176 ft | 229 kts | 166° |
| 2026-04-15 15:46 | 42.85330 | 3.05128 | 5984 ft | 238 kts | 165° |
| 2026-04-15 15:46 | 42.83769 | 3.05712 | 5961 ft | 233 kts | 165° |
| 2026-04-15 15:46 | 42.82209 | 3.06305 | 5960 ft | 235 kts | 165° |
| 2026-04-15 15:46 | 42.80610 | 3.06916 | 5983 ft | 241 kts | 165° |
| 2026-04-15 15:47 | 42.78966 | 3.07543 | 5818 ft | 248 kts | 165° |
| 2026-04-15 15:47 | 42.77305 | 3.08176 | 5610 ft | 246 kts | 165° |
| 2026-04-15 15:47 | 42.75661 | 3.08802 | 5400 ft | 243 kts | 165° |
| 2026-04-15 15:47 | 42.74041 | 3.09419 | 5211 ft | 239 kts | 165° |
| 2026-04-15 15:48 | 42.72466 | 3.10017 | 5004 ft | 237 kts | 165° |
| 2026-04-15 15:48 | 42.70883 | 3.10620 | 4762 ft | 236 kts | 165° |
| 2026-04-15 15:48 | 42.69282 | 3.11060 | 4524 ft | 234 kts | 180° |
| 2026-04-15 15:48 | 42.67667 | 3.11032 | 4312 ft | 230 kts | 182° |
| 2026-04-15 15:49 | 42.66068 | 3.11000 | 4123 ft | 227 kts | 182° |
| 2026-04-15 15:49 | 42.64512 | 3.10968 | 3947 ft | 219 kts | 182° |
| 2026-04-15 15:49 | 42.63012 | 3.10930 | 3767 ft | 210 kts | 185° |
| 2026-04-15 15:49 | 42.61631 | 3.10451 | 3574 ft | 203 kts | 204° |
| 2026-04-15 15:50 | 42.60425 | 3.09823 | 3429 ft | 204 kts | 202° |
| 2026-04-15 15:50 | 42.59087 | 3.09128 | 3280 ft | 206 kts | 207° |
| 2026-04-15 15:50 | 42.58115 | 3.07789 | 3079 ft | 200 kts | 252° |
| 2026-04-15 15:50 | 42.58099 | 3.05950 | 3056 ft | 198 kts | 283° |
| 2026-04-15 15:51 | 42.58362 | 3.04103 | 3011 ft | 200 kts | 282° |
| 2026-04-15 15:51 | 42.58609 | 3.02262 | 2997 ft | 196 kts | 282° |
| 2026-04-15 15:51 | 42.58925 | 3.00474 | 2983 ft | 194 kts | 296° |
| 2026-04-15 15:51 | 42.59884 | 2.99246 | 3022 ft | 193 kts | 332° |
| 2026-04-15 15:52 | 42.61030 | 2.98341 | 2950 ft | 188 kts | 327° |
| 2026-04-15 15:52 | 42.62100 | 2.97392 | 2786 ft | 180 kts | 327° |
| 2026-04-15 15:52 | 42.63144 | 2.96498 | 2551 ft | 180 kts | 328° |
| 2026-04-15 15:52 | 42.64221 | 2.95589 | 2307 ft | 180 kts | 328° |
| 2026-04-15 15:53 | 42.65276 | 2.94701 | 2068 ft | 176 kts | 328° |
| 2026-04-15 15:53 | 42.66269 | 2.93866 | 1842 ft | 158 kts | 328° |
| 2026-04-15 15:53 | 42.67140 | 2.93120 | 1649 ft | 140 kts | 329° |
| 2026-04-15 15:53 | 42.67966 | 2.92433 | 1458 ft | 136 kts | 329° |
| 2026-04-15 15:54 | 42.68748 | 2.91776 | 1289 ft | 132 kts | 329° |
| 2026-04-15 15:54 | 42.69526 | 2.91119 | 1108 ft | 133 kts | 329° |
| 2026-04-15 15:54 | 42.70311 | 2.90460 | 912 ft | 134 kts | 329° |
| 2026-04-15 15:54 | 42.71103 | 2.89794 | 737 ft | 133 kts | 329° |
| 2026-04-15 15:55 | 42.71885 | 2.89131 | 564 ft | 133 kts | 329° |
| 2026-04-15 15:55 | 42.72673 | 2.88463 | 396 ft | 134 kts | 326° |
| 2026-04-15 15:55 | 42.73466 | 2.87805 | 211 ft | 133 kts | 328° |
| 2026-04-15 15:55 | 42.74231 | 2.87157 | 146 ft | 120 kts | 331° |
| 2026-04-15 15:56 | 42.74763 | 2.86721 | 147 ft | 51 kts | 328° |
| 2026-04-15 15:56 | 42.74937 | 2.86574 | 149 ft | 18 kts | 323° |
| 2026-04-15 15:56 | 42.74972 | 2.86462 | 149 ft | 4 kts | 275° |
| 2026-04-15 15:56 | 42.74974 | 2.86426 | 149 ft | 4 kts | 275° |
| 2026-04-15 15:57 | 42.74970 | 2.86376 | 149 ft | 7 kts | 247° |
| 2026-04-15 15:57 | 42.74909 | 2.86339 | 148 ft | 13 kts | 171° |
| 2026-04-15 15:57 | 42.74817 | 2.86408 | 148 ft | 17 kts | 148° |
| 2026-04-15 15:57 | 42.74715 | 2.86494 | 147 ft | 17 kts | 148° |
| 2026-04-15 15:58 | 42.74616 | 2.86577 | 147 ft | 16 kts | 148° |
| 2026-04-15 15:58 | 42.74520 | 2.86657 | 147 ft | 16 kts | 149° |
| 2026-04-15 15:58 | 42.74428 | 2.86734 | 146 ft | 15 kts | 148° |
| 2026-04-15 15:58 | 42.74342 | 2.86807 | 146 ft | 15 kts | 149° |
| 2026-04-15 15:59 | 42.74257 | 2.86876 | 146 ft | 14 kts | 148° |
| 2026-04-15 15:59 | 42.74186 | 2.86962 | 146 ft | 13 kts | 140° |
| 2026-04-15 15:59 | 42.74110 | 2.87028 | 145 ft | 13 kts | 150° |
| 2026-04-15 15:59 | 42.74034 | 2.87089 | 145 ft | 11 kts | 149° |
| 2026-04-15 16:00 | 42.73980 | 2.87069 | 145 ft | 9 kts | 237° |
| 2026-04-15 16:00 | 42.73965 | 2.86991 | 147 ft | 9 kts | 260° |
| 2026-04-15 16:00 | 42.73955 | 2.86913 | 148 ft | 8 kts | 260° |
| 2026-04-15 16:00 | 42.73982 | 2.86875 | 148 ft | 6 kts | 350° |
| 2026-04-15 16:01 | 42.74000 | 2.86871 | 148 ft | 0 kts | 349° |